createdAt,value
2022-10-10T00:01:17.708Z,7.10
2022-10-10T00:03:45.246Z,6.47
2022-10-10T00:06:13.489Z,6.93
2022-10-10T00:08:40.993Z,6.55
2022-10-10T00:11:08.534Z,6.75
2022-10-10T00:13:35.887Z,7.00
2022-10-10T00:16:03.500Z,6.90
2022-10-10T00:18:31.265Z,6.57
2022-10-10T00:20:58.530Z,7.30
2022-10-10T00:23:25.718Z,6.13
2022-10-10T00:25:53.001Z,6.40
2022-10-10T00:28:20.558Z,6.72
2022-10-10T00:30:47.815Z,6.82
2022-10-10T00:33:16.552Z,6.63
2022-10-10T00:35:43.728Z,6.90
2022-10-10T00:38:11.045Z,6.25
2022-10-10T00:40:47.740Z,7.45
2022-10-10T00:43:15.556Z,7.05
2022-10-10T00:45:44.505Z,7.70
2022-10-10T00:48:24.841Z,7.70
2022-10-10T00:50:54.833Z,6.68
2022-10-10T00:53:25.426Z,7.47
2022-10-10T00:55:54.540Z,6.78
2022-10-10T00:58:22.003Z,7.22
2022-10-10T01:00:49.234Z,6.97
2022-10-10T01:03:16.444Z,7.50
2022-10-10T01:05:44.260Z,6.70
2022-10-10T01:08:11.604Z,6.70
2022-10-10T01:10:55.731Z,6.90
2022-10-10T01:13:40.446Z,7.90
2022-10-10T01:16:13.430Z,7.32
2022-10-10T01:18:46.628Z,7.60
2022-10-10T01:21:34.656Z,7.45
2022-10-10T01:24:30.104Z,7.05
2022-10-10T01:27:06.395Z,6.97
2022-10-10T01:29:54.065Z,7.65
2022-10-10T01:32:40.057Z,7.40
2022-10-10T01:35:09.543Z,7.75
2022-10-10T01:37:55.187Z,7.60
2022-10-10T01:40:48.253Z,6.95
2022-10-10T01:43:16.982Z,7.40
2022-10-10T01:45:46.477Z,7.18
2022-10-10T01:48:14.305Z,7.68
2022-10-10T01:51:08.272Z,6.93
2022-10-10T01:53:54.484Z,7.00
2022-10-10T01:56:27.738Z,6.82
2022-10-10T01:59:26.849Z,7.35
2022-10-10T02:01:58.573Z,7.13
2022-10-10T02:04:34.111Z,7.53
2022-10-10T02:07:42.092Z,6.90
2022-10-10T02:10:11.047Z,6.82
2022-10-10T02:12:40.293Z,7.00
2022-10-10T02:15:16.668Z,7.77
2022-10-10T02:17:45.817Z,6.45
2022-10-10T02:20:14.063Z,6.55
2022-10-10T02:22:44.510Z,6.28
2022-10-10T02:25:12.572Z,6.72
2022-10-10T02:27:49.414Z,6.90
2022-10-10T02:30:16.845Z,6.43
2022-10-10T02:32:50.154Z,6.60
2022-10-10T02:35:24.712Z,7.07
2022-10-10T02:37:53.432Z,7.22
2022-10-10T02:40:23.490Z,6.60
2022-10-10T02:42:51.963Z,6.82
2022-10-10T02:45:24.333Z,6.45
2022-10-10T02:47:52.513Z,7.35
2022-10-10T02:50:23.072Z,7.07
2022-10-10T02:52:50.927Z,6.70
2022-10-10T02:55:18.386Z,8.25
2022-10-10T02:57:45.652Z,7.53
2022-10-10T03:00:16.727Z,6.30
2022-10-10T03:02:44.191Z,7.00
2022-10-10T03:05:11.368Z,6.55
2022-10-10T03:07:38.645Z,6.85
2022-10-10T03:10:07.564Z,7.15
2022-10-10T03:12:35.801Z,6.55
2022-10-10T03:15:08.010Z,6.70
2022-10-10T03:17:38.655Z,6.43
2022-10-10T03:20:06.646Z,6.55
2022-10-10T03:22:34.124Z,6.30
2022-10-10T03:25:01.351Z,6.97
2022-10-10T03:27:29.031Z,6.57
2022-10-10T03:29:56.226Z,6.47
2022-10-10T03:32:23.505Z,6.50
2022-10-10T03:34:51.021Z,8.00
2022-10-10T03:37:18.223Z,7.47
2022-10-10T03:39:45.401Z,6.90
2022-10-10T03:42:12.980Z,7.05
2022-10-10T03:44:40.236Z,6.60
2022-10-10T03:47:07.507Z,6.70
2022-10-10T03:49:34.809Z,7.32
2022-10-10T03:52:02.600Z,7.28
2022-10-10T03:54:29.876Z,7.80
2022-10-10T03:56:57.251Z,7.15
2022-10-10T03:59:24.605Z,7.10
2022-10-10T04:01:51.855Z,7.18
2022-10-10T04:04:19.466Z,7.20
2022-10-10T04:06:46.718Z,6.95
2022-10-10T04:09:13.975Z,7.47
2022-10-10T04:11:41.261Z,6.85
2022-10-10T04:14:08.577Z,7.20
2022-10-10T04:16:35.792Z,7.00
2022-10-10T04:19:03.551Z,6.90
2022-10-10T04:21:31.808Z,7.60
2022-10-10T04:23:59.021Z,7.32
2022-10-10T04:26:26.394Z,7.40
2022-10-10T04:28:53.759Z,7.60
2022-10-10T04:31:21.038Z,7.68
2022-10-10T04:33:48.266Z,7.68
2022-10-10T04:36:15.827Z,7.95
2022-10-10T04:38:43.674Z,7.38
2022-10-10T04:41:10.975Z,6.85
2022-10-10T04:43:38.396Z,7.03
2022-10-10T04:46:05.819Z,6.32
2022-10-10T04:48:33.552Z,7.10
2022-10-10T04:51:00.878Z,6.40
2022-10-10T04:53:28.223Z,6.80
2022-10-10T04:55:55.486Z,6.30
2022-10-10T04:58:22.765Z,6.60
2022-10-10T05:00:54.445Z,5.85
2022-10-10T05:03:23.243Z,5.97
2022-10-10T05:05:50.556Z,6.65
2022-10-10T05:08:18.317Z,6.47
2022-10-10T05:10:46.502Z,6.60
2022-10-10T05:13:15.542Z,6.63
2022-10-10T05:16:23.248Z,7.15
2022-10-10T05:18:50.578Z,6.40
2022-10-10T05:21:38.103Z,6.57
2022-10-10T05:24:45.367Z,6.75
2022-10-10T05:27:19.388Z,6.65
2022-10-10T05:29:49.738Z,7.10
2022-10-10T05:32:17.030Z,7.30
2022-10-10T05:34:44.402Z,7.40
2022-10-10T05:37:12.083Z,7.57
2022-10-10T05:39:41.503Z,7.15
2022-10-10T05:42:14.383Z,7.90
2022-10-10T05:44:54.026Z,9.23
2022-10-10T05:47:26.735Z,8.40
2022-10-10T05:50:00.535Z,8.85
2022-10-10T05:52:28.936Z,9.10
2022-10-10T05:54:58.335Z,8.85
2022-10-10T06:00:25.547Z,7.25
2022-10-10T06:02:56.545Z,7.32
2022-10-10T06:05:26.329Z,10.70
2022-10-10T06:08:07.873Z,6.47
2022-10-10T06:10:53.501Z,7.97
2022-10-10T06:13:29.749Z,10.35
2022-10-10T06:16:03.342Z,8.30
2022-10-10T06:18:34.140Z,7.60
2022-10-10T06:21:03.592Z,9.43
2022-10-10T06:23:31.283Z,9.90
2022-10-10T06:26:01.789Z,8.15
2022-10-10T06:28:34.922Z,7.90
2022-10-10T06:31:04.715Z,7.18
2022-10-10T06:33:34.235Z,6.72
2022-10-10T06:36:06.504Z,6.50
2022-10-10T06:38:42.111Z,6.47
2022-10-10T06:41:11.218Z,6.80
2022-10-10T06:43:39.271Z,12.07
2022-10-10T06:46:11.051Z,8.25
2022-10-10T06:48:38.272Z,8.23
2022-10-10T06:51:17.711Z,7.22
2022-10-10T06:53:46.497Z,7.45
2022-10-10T06:56:27.660Z,7.28
2022-10-10T06:59:01.692Z,7.57
2022-10-10T07:02:06.807Z,7.05
2022-10-10T07:04:53.072Z,7.78
2022-10-10T07:07:23.496Z,7.47
2022-10-10T07:09:51.017Z,7.93
2022-10-10T07:12:18.351Z,7.45
2022-10-10T07:14:45.561Z,7.32
2022-10-10T07:17:12.944Z,7.72
2022-10-10T07:19:40.713Z,7.68
2022-10-10T07:22:07.895Z,7.10
2022-10-10T07:24:35.228Z,6.65
2022-10-10T07:27:08.521Z,8.20
2022-10-10T07:29:36.064Z,7.75
2022-10-10T07:32:04.046Z,9.32
2022-10-10T07:34:31.672Z,8.15
2022-10-10T07:36:59.016Z,6.68
2022-10-10T07:39:26.259Z,7.30
2022-10-10T07:41:53.442Z,8.05
2022-10-10T07:44:20.766Z,7.47
2022-10-10T07:46:48.007Z,7.80
2022-10-10T07:49:15.378Z,8.63
2022-10-10T07:51:42.674Z,7.65
2022-10-10T07:54:10.414Z,9.50
2022-10-10T07:56:37.655Z,7.93
2022-10-10T07:59:04.955Z,7.68
2022-10-10T08:01:32.314Z,6.65
2022-10-10T08:03:59.692Z,7.68
2022-10-10T08:06:27.153Z,7.07
2022-10-10T08:08:54.462Z,7.25
2022-10-10T08:11:22.491Z,7.93
2022-10-10T08:13:50.685Z,9.20
2022-10-10T08:16:18.943Z,7.63
2022-10-10T08:18:46.354Z,7.10
2022-10-10T08:21:15.527Z,7.75
2022-10-10T08:23:43.059Z,8.38
2022-10-10T08:26:12.715Z,8.00
2022-10-10T08:28:40.332Z,7.45
2022-10-10T08:31:14.045Z,8.27
2022-10-10T08:33:42.543Z,7.03
2022-10-10T08:36:17.832Z,7.35
2022-10-10T08:38:45.677Z,7.97
2022-10-10T08:41:40.766Z,7.45
2022-10-10T08:44:20.218Z,8.65
2022-10-10T08:47:03.711Z,7.47
2022-10-10T08:49:53.741Z,14.45
2022-10-10T08:52:30.062Z,5.88
2022-10-10T08:54:58.791Z,6.15
2022-10-10T08:57:29.574Z,6.07
2022-10-10T09:00:00.429Z,6.32
2022-10-10T09:02:53.069Z,6.32
2022-10-10T09:05:31.045Z,6.35
2022-10-10T09:08:03.869Z,5.88
2022-10-10T09:11:07.386Z,5.65
2022-10-10T09:13:41.188Z,6.18
2022-10-10T09:16:22.467Z,6.35
2022-10-10T09:18:59.587Z,5.65
2022-10-10T09:21:31.073Z,5.82
2022-10-10T09:24:20.714Z,5.53
2022-10-10T09:26:52.882Z,8.33
2022-10-10T09:29:42.429Z,6.63
2022-10-10T09:32:23.334Z,6.30
2022-10-10T09:34:55.254Z,11.15
2022-10-10T09:37:53.705Z,10.95
2022-10-10T09:40:40.395Z,6.50
2022-10-10T09:43:30.937Z,7.88
2022-10-10T09:45:58.319Z,8.80
2022-10-10T09:48:40.754Z,6.75
2022-10-10T09:51:14.532Z,6.28
2022-10-10T09:53:43.285Z,6.03
2022-10-10T09:56:21.684Z,6.22
2022-10-10T09:58:51.385Z,5.63
2022-10-10T10:01:21.236Z,5.55
2022-10-10T10:04:33.718Z,6.03
2022-10-10T10:07:19.583Z,6.10
2022-10-10T10:09:51.161Z,7.03
2022-10-10T10:12:23.072Z,5.78
2022-10-10T10:14:51.541Z,5.30
2022-10-10T10:17:23.848Z,6.00
2022-10-10T10:19:51.801Z,6.00
2022-10-10T10:22:38.507Z,5.55
2022-10-10T10:25:32.478Z,6.20
2022-10-10T10:28:18.631Z,8.18
2022-10-10T10:30:46.450Z,5.82
2022-10-10T10:33:58.495Z,6.78
2022-10-10T10:36:39.027Z,7.28
2022-10-10T10:39:33.281Z,7.35
2022-10-10T10:42:05.655Z,10.48
2022-10-10T10:44:47.109Z,11.15
2022-10-10T10:47:30.099Z,13.27
2022-10-10T10:50:16.020Z,13.90
2022-10-10T10:52:46.903Z,10.40
2022-10-10T10:55:39.374Z,7.28
2022-10-10T11:01:23.671Z,6.80
2022-10-10T11:05:16.303Z,8.95
2022-10-10T11:07:17.078Z,9.95
2022-10-10T11:09:50.422Z,8.15
2022-10-10T11:12:31.253Z,7.60
2022-10-10T11:14:58.409Z,6.47
2022-10-10T11:17:40.302Z,7.03
2022-10-10T11:20:23.270Z,8.07
2022-10-10T11:23:20.597Z,6.47
2022-10-10T11:26:01.306Z,6.30
2022-10-10T11:28:42.493Z,7.07
2022-10-10T11:31:19.490Z,7.15
2022-10-10T11:33:49.405Z,7.90
2022-10-10T11:36:19.165Z,8.77
2022-10-10T11:38:52.203Z,7.10
2022-10-10T11:42:04.777Z,8.07
2022-10-10T11:44:36.346Z,8.32
2022-10-10T11:47:13.642Z,7.60
2022-10-10T11:49:51.638Z,7.93
2022-10-10T11:52:33.529Z,6.72
2022-10-10T11:55:31.685Z,7.60
2022-10-10T11:58:05.158Z,13.23
2022-10-10T12:00:54.376Z,8.85
2022-10-10T12:03:21.690Z,7.95
2022-10-10T12:05:53.046Z,7.20
2022-10-10T12:08:49.396Z,7.28
2022-10-10T12:11:28.172Z,7.35
2022-10-10T12:14:00.939Z,8.20
2022-10-10T12:16:30.882Z,5.80
2022-10-10T12:19:08.963Z,6.70
2022-10-10T12:22:00.928Z,6.18
2022-10-10T12:24:33.737Z,7.57
2022-10-10T12:27:00.989Z,8.15
2022-10-10T12:29:55.838Z,8.07
2022-10-10T12:32:23.055Z,7.85
2022-10-10T12:34:50.201Z,7.78
2022-10-10T12:37:29.263Z,7.15
2022-10-10T12:40:05.573Z,7.95
2022-10-10T12:42:39.624Z,6.70
2022-10-10T12:45:30.402Z,8.88
2022-10-10T12:48:05.606Z,7.47
2022-10-10T12:50:43.222Z,7.72
2022-10-10T12:53:20.508Z,7.90
2022-10-10T12:55:50.300Z,10.05
2022-10-10T12:58:27.466Z,8.65
2022-10-10T13:01:06.944Z,8.60
2022-10-10T13:03:38.453Z,9.75
2022-10-10T13:06:09.821Z,8.13
2022-10-10T13:08:38.009Z,7.72
2022-10-10T13:11:06.863Z,8.10
2022-10-10T13:13:34.575Z,6.90
2022-10-10T13:16:16.307Z,8.00
2022-10-10T13:18:58.384Z,7.82
2022-10-10T13:21:35.182Z,8.07
2022-10-10T13:24:05.052Z,6.78
2022-10-10T13:26:40.712Z,6.93
2022-10-10T13:29:17.857Z,7.15
2022-10-10T13:31:45.388Z,8.25
2022-10-10T13:34:15.791Z,7.90
2022-10-10T13:36:43.747Z,6.82
2022-10-10T13:39:15.455Z,8.45
2022-10-10T13:41:46.587Z,6.80
2022-10-10T13:44:22.543Z,7.20
2022-10-10T13:46:50.109Z,7.13
2022-10-10T13:49:27.579Z,6.78
2022-10-10T13:52:07.096Z,6.97
2022-10-10T13:54:43.072Z,7.60
2022-10-10T13:57:20.417Z,6.68
2022-10-10T13:59:50.905Z,7.90
2022-10-10T14:02:25.376Z,7.20
2022-10-10T14:04:53.932Z,6.68
2022-10-10T14:07:26.423Z,7.40
2022-10-10T14:10:06.297Z,7.03
2022-10-10T14:12:45.368Z,6.60
2022-10-10T14:15:41.153Z,7.57
2022-10-10T14:18:20.563Z,6.22
2022-10-10T14:20:48.571Z,7.20
2022-10-10T14:23:16.103Z,7.07
2022-10-10T14:25:45.783Z,7.03
2022-10-10T14:28:17.197Z,6.75
2022-10-10T14:30:44.792Z,6.70
2022-10-10T14:33:13.021Z,7.07
2022-10-10T14:35:40.938Z,7.68
2022-10-10T14:38:10.665Z,8.10
2022-10-10T14:40:38.076Z,6.85
2022-10-10T14:43:05.415Z,6.68
2022-10-10T14:45:33.108Z,6.60
2022-10-10T14:48:00.563Z,6.80
2022-10-10T14:50:35.330Z,6.72
2022-10-10T14:53:03.027Z,6.25
2022-10-10T14:55:30.425Z,6.20
2022-10-10T14:57:57.812Z,6.47
2022-10-10T15:00:26.769Z,6.72
2022-10-10T15:02:54.531Z,6.35
2022-10-10T15:05:22.304Z,6.72
2022-10-10T15:07:53.915Z,6.65
2022-10-10T15:10:33.553Z,5.80
2022-10-10T15:13:02.327Z,6.32
2022-10-10T15:15:29.749Z,6.68
2022-10-10T15:17:58.303Z,6.10
2022-10-10T15:20:31.011Z,7.32
2022-10-10T15:23:00.515Z,6.63
2022-10-10T15:25:33.286Z,7.18
2022-10-10T15:28:04.659Z,5.95
2022-10-10T15:30:32.007Z,6.57
2022-10-10T15:32:59.213Z,5.95
2022-10-10T15:35:30.217Z,6.63
2022-10-10T15:38:07.469Z,6.35
2022-10-10T15:40:35.721Z,6.43
2022-10-10T15:43:03.635Z,7.20
2022-10-10T15:45:51.418Z,7.07
2022-10-10T15:48:18.462Z,6.68
2022-10-10T15:50:45.825Z,5.88
2022-10-10T15:53:13.169Z,6.80
2022-10-10T15:55:46.634Z,6.50
2022-10-10T15:58:14.987Z,6.57
2022-10-10T16:00:43.791Z,6.05
2022-10-10T16:03:11.613Z,7.18
2022-10-10T16:05:40.241Z,6.53
2022-10-10T16:08:08.529Z,6.05
2022-10-10T16:10:40.654Z,6.75
2022-10-10T16:13:08.338Z,5.85
2022-10-10T16:15:35.691Z,6.07
2022-10-10T16:18:03.744Z,6.05
2022-10-10T16:20:30.915Z,5.80
2022-10-10T16:22:58.220Z,6.40
2022-10-10T16:25:25.423Z,6.97
2022-10-10T16:27:52.865Z,6.50
2022-10-10T16:30:20.937Z,6.10
2022-10-10T16:32:48.620Z,6.20
2022-10-10T16:35:16.003Z,6.50
2022-10-10T16:37:43.277Z,6.63
2022-10-10T16:40:10.801Z,6.97
2022-10-10T16:42:38.011Z,6.75
2022-10-10T16:45:05.951Z,5.32
2022-10-10T16:47:33.192Z,6.15
2022-10-10T16:50:00.438Z,6.30
2022-10-10T16:52:27.695Z,6.32
2022-10-10T16:54:54.919Z,6.45
2022-10-10T16:57:22.305Z,6.45
2022-10-10T16:59:49.555Z,6.03
2022-10-10T17:02:17.924Z,6.50
2022-10-10T17:04:45.072Z,6.85
2022-10-10T17:07:12.282Z,6.60
2022-10-10T17:09:39.574Z,6.38
2022-10-10T17:12:07.350Z,6.60
2022-10-10T17:14:34.699Z,6.40
2022-10-10T17:17:17.211Z,6.07
2022-10-10T17:19:44.733Z,6.25
2022-10-10T17:22:11.906Z,7.45
2022-10-10T17:24:39.311Z,7.53
2022-10-10T17:27:06.567Z,8.00
2022-10-10T17:29:33.986Z,8.25
2022-10-10T17:32:06.044Z,8.02
2022-10-10T17:34:34.334Z,6.75
2022-10-10T17:37:01.896Z,7.68
2022-10-10T17:39:29.166Z,7.85
2022-10-10T17:41:56.661Z,8.18
2022-10-10T17:44:24.040Z,8.65
2022-10-10T17:46:51.223Z,8.35
2022-10-10T17:49:19.939Z,8.60
2022-10-10T17:51:47.648Z,10.48
2022-10-10T17:54:15.200Z,9.70
2022-10-10T17:56:44.581Z,8.10
2022-10-10T17:59:12.127Z,8.63
2022-10-10T18:01:39.980Z,8.32
2022-10-10T18:04:07.511Z,7.45
2022-10-10T18:06:36.945Z,7.28
2022-10-10T18:09:04.291Z,6.68
2022-10-10T18:11:32.004Z,6.63
2022-10-10T18:14:02.389Z,7.40
2022-10-10T18:16:33.853Z,6.35
2022-10-10T18:19:02.787Z,6.13
2022-10-10T18:21:30.107Z,6.13
2022-10-10T18:23:57.434Z,5.53
2022-10-10T18:26:27.028Z,5.78
2022-10-10T18:28:55.517Z,5.45
2022-10-10T18:31:25.486Z,5.32
2022-10-10T18:33:53.172Z,6.07
2022-10-10T18:36:23.073Z,5.43
2022-10-10T18:38:50.444Z,5.07
2022-10-10T18:41:22.922Z,5.40
2022-10-10T18:43:51.630Z,5.57
2022-10-10T18:46:20.490Z,6.35
2022-10-10T18:49:13.974Z,6.10
2022-10-10T18:51:44.448Z,6.38
2022-10-10T18:54:14.915Z,5.88
2022-10-10T18:56:49.797Z,5.85
2022-10-10T18:59:23.920Z,6.20
2022-10-10T19:01:52.801Z,6.70
2022-10-10T19:04:32.815Z,7.20
2022-10-10T19:07:02.131Z,8.48
2022-10-10T19:09:38.446Z,8.90
2022-10-10T19:12:06.326Z,9.85
2022-10-10T19:14:34.552Z,13.43
2022-10-10T19:17:02.588Z,14.50
2022-10-10T19:19:30.003Z,16.38
2022-10-10T19:21:57.359Z,16.10
2022-10-10T19:24:24.648Z,16.33
2022-10-10T19:26:54.801Z,17.02
2022-10-10T19:31:49.852Z,17.10
2022-10-10T19:34:17.097Z,17.55
2022-10-10T19:36:45.048Z,16.48
2022-10-10T19:39:12.280Z,17.45
2022-10-10T19:41:39.502Z,18.10
2022-10-10T19:44:06.968Z,17.52
2022-10-10T19:46:37.188Z,18.25
2022-10-10T19:49:05.433Z,18.35
2022-10-10T19:51:32.670Z,19.95
2022-10-10T19:54:00.045Z,22.48
2022-10-10T19:56:28.168Z,25.20
2022-10-10T19:58:58.930Z,19.77
2022-10-10T20:01:29.551Z,20.55
2022-10-10T20:03:58.297Z,21.25
2022-10-10T20:06:25.783Z,19.83
2022-10-10T20:08:53.207Z,19.02
2022-10-10T20:11:20.877Z,18.00
2022-10-10T20:13:51.784Z,17.77
2022-10-10T20:16:19.130Z,16.58
2022-10-10T20:18:49.484Z,16.92
2022-10-10T20:21:20.299Z,15.05
2022-10-10T20:23:48.462Z,15.80
2022-10-10T20:26:19.196Z,14.35
2022-10-10T20:28:46.886Z,14.05
2022-10-10T20:31:22.163Z,14.45
2022-10-10T20:33:50.895Z,13.50
2022-10-10T20:36:19.301Z,13.15
2022-10-10T20:39:00.656Z,12.98
2022-10-10T20:41:31.041Z,13.43
2022-10-10T20:44:00.148Z,13.40
2022-10-10T20:46:30.718Z,12.43
2022-10-10T20:48:59.212Z,12.20
2022-10-10T20:51:27.511Z,12.57
2022-10-10T20:53:57.544Z,10.38
2022-10-10T20:58:52.155Z,9.20
2022-10-10T21:01:21.479Z,9.15
2022-10-10T21:03:48.897Z,8.10
2022-10-10T21:06:20.582Z,7.43
2022-10-10T21:08:47.825Z,7.93
2022-10-10T21:11:17.241Z,6.90
2022-10-10T21:13:50.174Z,6.55
2022-10-10T21:16:18.663Z,6.15
2022-10-10T21:18:56.966Z,5.90
2022-10-10T21:21:27.556Z,5.28
2022-10-10T21:23:56.449Z,5.93
2022-10-10T21:26:25.876Z,4.63
2022-10-10T21:28:54.050Z,4.60
2022-10-10T21:31:23.924Z,5.22
2022-10-10T21:34:01.274Z,4.63
2022-10-10T21:36:35.594Z,5.05
2022-10-10T21:39:06.545Z,5.00
2022-10-10T21:41:34.518Z,4.32
2022-10-10T21:44:01.812Z,3.85
2022-10-10T21:46:34.956Z,3.55
2022-10-10T21:49:10.449Z,3.95
2022-10-10T21:51:41.081Z,3.50
2022-10-10T21:54:09.448Z,3.17
2022-10-10T21:56:37.145Z,2.53
2022-10-10T21:59:04.782Z,3.17
2022-10-10T22:01:33.344Z,3.25
2022-10-10T22:04:01.948Z,2.58
2022-10-10T22:06:29.846Z,2.58
2022-10-10T22:08:58.691Z,2.50
2022-10-10T22:11:27.808Z,3.05
2022-10-10T22:13:55.438Z,3.60
2022-10-10T22:16:22.803Z,3.05
2022-10-10T22:18:55.531Z,3.53
2022-10-10T22:21:29.214Z,3.05
2022-10-10T22:24:01.337Z,3.83
2022-10-10T22:26:29.372Z,4.40
2022-10-10T22:28:56.725Z,4.72
2022-10-10T22:31:24.017Z,4.90
2022-10-10T22:33:51.282Z,5.10
2022-10-10T22:36:18.481Z,5.07
2022-10-10T22:38:45.949Z,5.88
2022-10-10T22:41:13.635Z,5.72
2022-10-10T22:43:41.003Z,5.45
2022-10-10T22:46:09.233Z,5.55
2022-10-10T22:48:37.216Z,5.93
2022-10-10T22:51:09.655Z,6.32
2022-10-10T22:53:38.966Z,6.00
2022-10-10T22:56:07.436Z,5.27
2022-10-10T22:58:35.188Z,5.88
2022-10-10T23:01:07.397Z,4.57
2022-10-10T23:03:35.314Z,5.25
2022-10-10T23:06:02.935Z,4.55
2022-10-10T23:08:30.761Z,4.20
2022-10-10T23:10:58.305Z,4.47
2022-10-10T23:13:25.764Z,4.35
2022-10-10T23:15:53.486Z,4.03
2022-10-10T23:18:21.233Z,3.30
2022-10-10T23:20:49.329Z,3.33
2022-10-10T23:23:18.012Z,3.30
2022-10-10T23:25:47.800Z,3.85
2022-10-10T23:28:15.880Z,3.45
2022-10-10T23:30:45.647Z,3.53
2022-10-10T23:33:13.567Z,2.95
2022-10-10T23:35:40.949Z,2.90
2022-10-10T23:38:08.351Z,4.07
2022-10-10T23:40:35.661Z,2.72
2022-10-10T23:43:03.102Z,2.40
2022-10-10T23:45:31.142Z,2.65
2022-10-10T23:48:16.590Z,3.60
2022-10-10T23:50:49.617Z,2.95
2022-10-10T23:53:34.832Z,2.00
2022-10-10T23:56:09.036Z,3.38
2022-10-10T23:58:36.423Z,2.92
